Create Custom Reports and Graphics: Custom Report

Soquel - CalFire

Current Conditions

1/18/21 10:45 AM (-08:00)
Updated Every 15 Minutes
Temp 63.3 °F   3.1
RH 18 %   12
Dew Pt 18.4 °F   14.9
Wind Spd 9.3 mph
Wind Dir NNE | 22 °
Wind Gust 16.9 mph   12.7
Latest Rain 0.00 In
Daily Rain 0.00 In
Leaf Wet 0.0 mins
Daily Min Temp 57.3 °F   1.7
Daily Max Temp 64.4 °F   3.4

Daily Summary

Last 30 Days

Daily Data | America/Los_Angeles
as of 1/18/21 10:54 AM PST
Date Daily Max Temp (°F) Daily Min Temp (°F) Daily Rain (In) Seasonal Rainfall (In) Daily Solar Rad (Cal/cm2) Daily ETo (in) Wind Spd (mph) Daily Max Wind (mph) Max Wind Dir (°) Dew Pt (°F) Max RH (%) Min RH (%) Daily Leaf Wet Hrs (hrs) Soil Temp (°F) Soil Moist (%) Fuel Moisture (%) Max Fuel Moisture (%) Min Fuel Moisture (%) Bat Volt Min Day (V)
1/17/21 76.1 59.0 0.00 7.77 291 0.069 2.1 11.4 N | 9 33.4 47 16 0.0 52.7 25.0 9 13 0 12.4
1/16/21 75.7 58.5 0.00 7.77 282 0.068 1.4 12.1 N | 350 39.3 55 18 0.0 52.5 25.2 10 14 0 12.4
1/15/21 76.1 53.6 0.00 7.77 268 0.064 1.8 16.1 N | 6 32.3 60 16 0.0 52.4 25.3 12 18 0 12.4
1/14/21 74.1 52.9 0.00 7.77 281 0.069 1.1 7.1 SSE | 150 43.4 83 29 0.0 52.3 25.4 17 25 2 12.4
1/13/21 69.9 48.8 0.00 7.77 265 0.063 1.3 10.5 NNE | 26 48.2 83 52 0.0 52.3 25.5 20 27 6 12.3
1/12/21 63.1 46.5 0.00 7.77 151 0.033 0.8 4.5 W | 267 44.2 86 43 0.0 52.3 25.6 24 29 15 12.4
1/11/21 64.2 45.2 0.00 7.77 257 0.057 1.0 7.0 S | 182 45.5 93 57 15.8 52.4 25.5 25 33 14 12.4
1/10/21 64.7 42.9 0.00 7.77 223 0.049 1.0 8.5 NE | 48 40.4 91 41 5.3 52.4 25.6 19 26 10 12.4
1/9/21 60.7 43.0 0.00 7.77 270 0.056 1.5 12.4 NNE | 14 32.1 82 18 0.0 52.4 25.8 20 26 11 12.4
1/8/21 64.5 45.4 0.00 7.77 210 0.047 1.3 13.8 NNE | 20 43.6 84 48 0.0 52.5 26.0 22 27 11 12.4
1/7/21 64.9 44.9 0.00 7.77 266 0.060 1.2 7.0 W | 264 43.7 88 51 2.0 52.5 26.2 26 33 13 12.4
1/6/21 59.7 40.4 0.00 7.77 174 0.035 1.3 8.2 SW | 227 39.3 88 39 2.2 52.6 26.4 32 40 19 12.4
1/5/21 55.8 37.8 0.01 6.91 196 0.038 0.9 5.4 NNE | 15 40.8 96 63 17.2 52.6 26.8 46 56 34 12.2
1/4/21 53.2 39.8 0.60 6.90 58 0.013 1.4 14.3 SW | 221 45.9 96 80 24.0 52.6 27.5 47 54 39 12.3
1/3/21 57.4 41.6 0.01 6.30 188 0.039 0.5 5.9 SSE | 155 46.2 96 79 19.0 52.6 26.8 46 57 34 12.3
1/2/21 50.6 43.6 0.23 6.29 58 0.014 0.2 3.9 NE | 40 43.5 95 52 17.7 52.8 26.4 44 55 24 12.3
1/1/21 56.8 42.5 0.00 6.06 216 0.044 0.9 6.6 SSW | 211 38.1 86 50 0.5 52.9 25.4 24 27 17 12.4
12/31/20 56.2 41.6 0.06 6.06 259 0.052 2.3 19.6 NE | 39 37.7 94 44 7.0 53.1 25.6 32 48 20 12.4
12/30/20 58.5 39.2 0.00 6.00 251 0.051 1.0 5.7 WSW | 243 35.4 92 33 2.5 53.2 25.4 23 28 14 12.3
12/29/20 59.8 38.9 0.00 6.00 259 0.053 1.5 14.6 ENE | 58 34.3 92 27 5.3 53.4 25.8 30 42 17 12.3
12/28/20 52.3 39.4 0.14 6.00 227 0.043 1.2 8.3 N | 0 39.8 94 61 17.3 53.4 26.8 42 54 29 12.4
12/27/20 55.8 41.3 0.02 5.23 236 0.046 1.1 9.0 SSW | 207 38.9 90 48 8.0 53.4 25.9 33 42 22 12.4
12/26/20 54.8 42.7 0.17 5.20 188 0.038 1.4 10.2 SSW | 205 45.3 96 66 19.1 53.5 27.2 46 57 33 12.3
12/25/20 56.6 46.3 0.97 5.18 138 0.031 1.7 13.2 WSW | 243 38.4 95 33 8.2 53.7 25.2 25 54 11 12.3
12/24/20 65.9 48.1 0.00 5.16 207 0.044 1.1 6.5 S | 182 25.0 64 15 0.0 53.9 24.3 14 16 7 12.4
12/23/20 59.9 45.2 0.00 5.15 220 0.044 1.7 10.1 NNE | 20 25.8 63 22 0.0 54.2 24.3 15 18 10 12.3
12/22/20 58.0 42.4 0.00 5.14 261 0.053 2.1 12.4 NNE | 25 34.9 88 23 3.9 54.4 24.5 18 22 12 12.3
12/21/20 71.8 45.8 0.00 5.12 264 0.059 1.0 7.1 NNE | 24 29.4 67 13 0.0 54.6 24.7 15 20 2 12.3
12/20/20 67.7 44.3 0.00 5.10 263 0.058 1.0 6.5 NNE | 28 33.3 74 30 0.0 54.9 24.9 17 21 6 12.3
12/19/20 65.9 43.1 0.00 5.07 260 0.056 1.0 4.3 NE | 56 34.6 72 35 0.0 55.0 25.2 19 24 9 12.3
Max 76.1 59.0 0.97 - 291 0.069 2.3 19.6 - 48.2 96 80 24.0 55.0 27.5 47 57 39 12.4
Avg - - - - - - 1.3 - - 38.4 - - - 53.1 25.7 26 34 15 -
Min 50.6 37.8 0.00 - 58 0.013 0.2 3.9 - 25.0 47 13 0.0 52.3 24.3 9 13 0 12.2